sensor_id;sensor_type;location;lat;lon;timestamp;P1;durP1;ratioP1;P2;durP2;ratioP2
30000;SDS011;16845;48.670;9.000;2022-07-15T00:01:49;4.43;;;3.10;;
30000;SDS011;16845;48.670;9.000;2022-07-15T00:04:17;5.15;;;3.22;;
30000;SDS011;16845;48.670;9.000;2022-07-15T00:06:45;8.10;;;3.25;;
30000;SDS011;16845;48.670;9.000;2022-07-15T00:09:13;10.77;;;3.00;;
30000;SDS011;16845;48.670;9.000;2022-07-15T00:11:41;5.13;;;2.75;;
30000;SDS011;16845;48.670;9.000;2022-07-15T00:14:09;7.53;;;2.90;;
30000;SDS011;16845;48.670;9.000;2022-07-15T00:16:37;8.35;;;3.67;;
30000;SDS011;16845;48.670;9.000;2022-07-15T00:19:06;6.72;;;3.15;;
30000;SDS011;16845;48.670;9.000;2022-07-15T00:21:34;6.60;;;3.90;;
30000;SDS011;16845;48.670;9.000;2022-07-15T00:24:02;6.60;;;3.03;;
30000;SDS011;16845;48.670;9.000;2022-07-15T00:26:31;7.75;;;3.55;;
30000;SDS011;16845;48.670;9.000;2022-07-15T00:29:02;8.48;;;3.35;;
30000;SDS011;16845;48.670;9.000;2022-07-15T00:31:30;6.65;;;2.78;;
30000;SDS011;16845;48.670;9.000;2022-07-15T00:33:58;8.73;;;3.15;;
30000;SDS011;16845;48.670;9.000;2022-07-15T00:36:27;3.63;;;2.65;;
30000;SDS011;16845;48.670;9.000;2022-07-15T00:38:55;6.32;;;3.33;;
30000;SDS011;16845;48.670;9.000;2022-07-15T00:41:23;8.85;;;3.05;;
30000;SDS011;16845;48.670;9.000;2022-07-15T00:43:51;4.15;;;2.80;;
30000;SDS011;16845;48.670;9.000;2022-07-15T00:46:19;6.28;;;3.25;;
30000;SDS011;16845;48.670;9.000;2022-07-15T00:48:48;5.00;;;3.15;;
30000;SDS011;16845;48.670;9.000;2022-07-15T00:51:17;5.47;;;2.85;;
30000;SDS011;16845;48.670;9.000;2022-07-15T00:53:46;8.10;;;3.70;;
30000;SDS011;16845;48.670;9.000;2022-07-15T00:56:15;7.32;;;3.00;;
30000;SDS011;16845;48.670;9.000;2022-07-15T00:58:44;5.70;;;3.08;;
30000;SDS011;16845;48.670;9.000;2022-07-15T01:01:14;9.02;;;3.53;;
30000;SDS011;16845;48.670;9.000;2022-07-15T01:03:47;6.38;;;3.85;;
30000;SDS011;16845;48.670;9.000;2022-07-15T01:06:15;6.05;;;2.78;;
30000;SDS011;16845;48.670;9.000;2022-07-15T01:08:43;5.32;;;2.90;;
30000;SDS011;16845;48.670;9.000;2022-07-15T01:11:13;8.60;;;3.20;;
30000;SDS011;16845;48.670;9.000;2022-07-15T01:13:41;6.28;;;3.20;;
30000;SDS011;16845;48.670;9.000;2022-07-15T01:16:09;5.85;;;2.70;;
30000;SDS011;16845;48.670;9.000;2022-07-15T01:18:38;8.95;;;2.95;;
30000;SDS011;16845;48.670;9.000;2022-07-15T01:21:07;7.97;;;3.88;;
30000;SDS011;16845;48.670;9.000;2022-07-15T01:23:35;4.07;;;2.92;;
30000;SDS011;16845;48.670;9.000;2022-07-15T01:26:09;5.97;;;2.83;;
30000;SDS011;16845;48.670;9.000;2022-07-15T01:28:37;4.75;;;2.92;;
30000;SDS011;16845;48.670;9.000;2022-07-15T01:31:05;5.30;;;2.53;;
30000;SDS011;16845;48.670;9.000;2022-07-15T01:33:34;5.07;;;2.63;;
30000;SDS011;16845;48.670;9.000;2022-07-15T01:36:03;6.38;;;2.65;;
30000;SDS011;16845;48.670;9.000;2022-07-15T01:38:33;7.30;;;2.85;;
30000;SDS011;16845;48.670;9.000;2022-07-15T01:41:14;5.85;;;2.40;;
30000;SDS011;16845;48.670;9.000;2022-07-15T01:43:42;10.00;;;2.75;;
30000;SDS011;16845;48.670;9.000;2022-07-15T01:46:10;5.72;;;2.88;;
30000;SDS011;16845;48.670;9.000;2022-07-15T01:48:39;7.05;;;3.55;;
30000;SDS011;16845;48.670;9.000;2022-07-15T01:51:24;6.13;;;2.55;;
30000;SDS011;16845;48.670;9.000;2022-07-15T01:53:54;8.55;;;3.63;;
30000;SDS011;16845;48.670;9.000;2022-07-15T01:56:22;4.32;;;2.47;;
30000;SDS011;16845;48.670;9.000;2022-07-15T01:58:50;7.40;;;2.95;;
30000;SDS011;16845;48.670;9.000;2022-07-15T02:01:18;6.63;;;2.90;;
30000;SDS011;16845;48.670;9.000;2022-07-15T02:03:46;3.85;;;2.50;;
30000;SDS011;16845;48.670;9.000;2022-07-15T02:06:14;4.90;;;3.38;;
30000;SDS011;16845;48.670;9.000;2022-07-15T02:08:42;5.10;;;2.88;;
30000;SDS011;16845;48.670;9.000;2022-07-15T02:11:12;2.80;;;2.25;;
30000;SDS011;16845;48.670;9.000;2022-07-15T02:13:40;4.20;;;2.40;;
30000;SDS011;16845;48.670;9.000;2022-07-15T02:16:08;5.25;;;2.33;;
30000;SDS011;16845;48.670;9.000;2022-07-15T02:18:37;3.00;;;2.33;;
30000;SDS011;16845;48.670;9.000;2022-07-15T02:21:05;6.65;;;2.75;;
30000;SDS011;16845;48.670;9.000;2022-07-15T02:23:33;6.20;;;2.90;;
30000;SDS011;16845;48.670;9.000;2022-07-15T02:26:01;10.60;;;2.95;;
30000;SDS011;16845;48.670;9.000;2022-07-15T02:28:31;7.25;;;2.50;;
30000;SDS011;16845;48.670;9.000;2022-07-15T02:30:59;8.35;;;3.28;;
30000;SDS011;16845;48.670;9.000;2022-07-15T02:33:27;5.65;;;2.35;;
30000;SDS011;16845;48.670;9.000;2022-07-15T02:35:55;6.75;;;2.78;;
30000;SDS011;16845;48.670;9.000;2022-07-15T02:38:23;5.85;;;2.90;;
30000;SDS011;16845;48.670;9.000;2022-07-15T02:40:51;4.00;;;2.53;;
30000;SDS011;16845;48.670;9.000;2022-07-15T02:43:19;8.82;;;3.60;;
30000;SDS011;16845;48.670;9.000;2022-07-15T02:45:49;8.13;;;2.33;;
30000;SDS011;16845;48.670;9.000;2022-07-15T02:48:17;7.78;;;2.80;;
30000;SDS011;16845;48.670;9.000;2022-07-15T02:50:45;5.25;;;2.80;;
30000;SDS011;16845;48.670;9.000;2022-07-15T02:53:13;7.38;;;2.40;;
30000;SDS011;16845;48.670;9.000;2022-07-15T02:55:42;8.43;;;2.65;;
30000;SDS011;16845;48.670;9.000;2022-07-15T02:58:10;4.82;;;2.83;;
30000;SDS011;16845;48.670;9.000;2022-07-15T03:00:38;7.65;;;3.10;;
30000;SDS011;16845;48.670;9.000;2022-07-15T03:03:07;6.22;;;2.90;;
30000;SDS011;16845;48.670;9.000;2022-07-15T03:05:35;7.15;;;2.38;;
30000;SDS011;16845;48.670;9.000;2022-07-15T03:08:03;3.50;;;2.75;;
30000;SDS011;16845;48.670;9.000;2022-07-15T03:10:32;5.00;;;2.88;;
30000;SDS011;16845;48.670;9.000;2022-07-15T03:13:00;5.20;;;2.85;;
30000;SDS011;16845;48.670;9.000;2022-07-15T03:15:28;8.13;;;2.80;;
30000;SDS011;16845;48.670;9.000;2022-07-15T03:17:56;4.15;;;2.65;;
30000;SDS011;16845;48.670;9.000;2022-07-15T03:20:25;4.15;;;2.80;;
30000;SDS011;16845;48.670;9.000;2022-07-15T03:22:53;4.65;;;2.92;;
30000;SDS011;16845;48.670;9.000;2022-07-15T03:25:21;6.40;;;2.55;;
30000;SDS011;16845;48.670;9.000;2022-07-15T03:27:49;5.30;;;3.13;;
30000;SDS011;16845;48.670;9.000;2022-07-15T03:30:17;6.53;;;3.10;;
30000;SDS011;16845;48.670;9.000;2022-07-15T03:32:47;7.00;;;3.13;;
30000;SDS011;16845;48.670;9.000;2022-07-15T03:35:15;5.55;;;3.45;;
30000;SDS011;16845;48.670;9.000;2022-07-15T03:37:45;9.07;;;3.38;;
30000;SDS011;16845;48.670;9.000;2022-07-15T03:40:12;5.03;;;3.30;;
30000;SDS011;16845;48.670;9.000;2022-07-15T03:42:40;6.72;;;3.40;;
30000;SDS011;16845;48.670;9.000;2022-07-15T03:45:09;7.95;;;3.20;;
30000;SDS011;16845;48.670;9.000;2022-07-15T03:47:37;3.90;;;2.78;;
30000;SDS011;16845;48.670;9.000;2022-07-15T03:50:05;6.38;;;3.45;;
30000;SDS011;16845;48.670;9.000;2022-07-15T03:52:34;8.32;;;3.55;;
30000;SDS011;16845;48.670;9.000;2022-07-15T03:55:04;8.20;;;2.85;;
30000;SDS011;16845;48.670;9.000;2022-07-15T03:57:36;6.65;;;3.05;;
30000;SDS011;16845;48.670;9.000;2022-07-15T04:00:04;3.53;;;3.22;;
30000;SDS011;16845;48.670;9.000;2022-07-15T04:02:33;5.57;;;2.90;;
30000;SDS011;16845;48.670;9.000;2022-07-15T04:05:01;5.05;;;3.30;;
30000;SDS011;16845;48.670;9.000;2022-07-15T04:07:30;6.80;;;3.13;;
30000;SDS011;16845;48.670;9.000;2022-07-15T04:09:57;6.90;;;3.70;;
30000;SDS011;16845;48.670;9.000;2022-07-15T04:12:27;5.90;;;3.67;;
30000;SDS011;16845;48.670;9.000;2022-07-15T04:14:54;5.85;;;3.30;;
30000;SDS011;16845;48.670;9.000;2022-07-15T04:17:22;6.95;;;3.88;;
30000;SDS011;16845;48.670;9.000;2022-07-15T04:19:50;6.35;;;3.53;;
30000;SDS011;16845;48.670;9.000;2022-07-15T04:22:18;8.13;;;3.80;;
30000;SDS011;16845;48.670;9.000;2022-07-15T04:24:47;5.38;;;3.55;;
30000;SDS011;16845;48.670;9.000;2022-07-15T04:27:16;6.13;;;3.20;;
30000;SDS011;16845;48.670;9.000;2022-07-15T04:29:45;4.82;;;3.50;;
30000;SDS011;16845;48.670;9.000;2022-07-15T04:32:13;6.70;;;3.25;;
30000;SDS011;16845;48.670;9.000;2022-07-15T04:34:41;6.50;;;3.50;;
30000;SDS011;16845;48.670;9.000;2022-07-15T04:37:09;7.00;;;3.67;;
30000;SDS011;16845;48.670;9.000;2022-07-15T04:39:37;4.22;;;3.15;;
30000;SDS011;16845;48.670;9.000;2022-07-15T04:42:05;9.25;;;3.58;;
30000;SDS011;16845;48.670;9.000;2022-07-15T04:44:32;6.78;;;3.55;;
30000;SDS011;16845;48.670;9.000;2022-07-15T04:47:02;7.80;;;3.50;;
30000;SDS011;16845;48.670;9.000;2022-07-15T04:49:30;10.07;;;3.30;;
30000;SDS011;16845;48.670;9.000;2022-07-15T04:52:15;5.85;;;3.65;;
30000;SDS011;16845;48.670;9.000;2022-07-15T04:54:44;7.25;;;4.60;;
30000;SDS011;16845;48.670;9.000;2022-07-15T04:57:12;12.77;;;3.55;;
30000;SDS011;16845;48.670;9.000;2022-07-15T04:59:40;8.35;;;3.97;;
30000;SDS011;16845;48.670;9.000;2022-07-15T05:02:09;7.88;;;3.75;;
30000;SDS011;16845;48.670;9.000;2022-07-15T05:04:37;5.93;;;4.20;;
30000;SDS011;16845;48.670;9.000;2022-07-15T05:07:06;6.68;;;2.97;;
30000;SDS011;16845;48.670;9.000;2022-07-15T05:09:34;6.05;;;2.97;;
30000;SDS011;16845;48.670;9.000;2022-07-15T05:12:02;10.13;;;4.13;;
30000;SDS011;16845;48.670;9.000;2022-07-15T05:14:31;5.38;;;3.13;;
30000;SDS011;16845;48.670;9.000;2022-07-15T05:16:59;5.88;;;3.08;;
30000;SDS011;16845;48.670;9.000;2022-07-15T05:19:28;8.05;;;4.43;;
30000;SDS011;16845;48.670;9.000;2022-07-15T05:21:56;4.18;;;3.13;;
30000;SDS011;16845;48.670;9.000;2022-07-15T05:24:24;6.63;;;3.50;;
30000;SDS011;16845;48.670;9.000;2022-07-15T05:26:55;7.30;;;3.97;;
30000;SDS011;16845;48.670;9.000;2022-07-15T05:29:23;6.82;;;3.35;;
30000;SDS011;16845;48.670;9.000;2022-07-15T05:31:51;10.60;;;5.15;;
30000;SDS011;16845;48.670;9.000;2022-07-15T05:34:19;9.77;;;3.20;;
30000;SDS011;16845;48.670;9.000;2022-07-15T05:36:48;6.75;;;2.85;;
30000;SDS011;16845;48.670;9.000;2022-07-15T05:39:16;10.55;;;3.97;;
30000;SDS011;16845;48.670;9.000;2022-07-15T05:41:44;6.10;;;3.13;;
30000;SDS011;16845;48.670;9.000;2022-07-15T05:44:14;4.63;;;2.75;;
30000;SDS011;16845;48.670;9.000;2022-07-15T05:46:42;3.65;;;3.15;;
30000;SDS011;16845;48.670;9.000;2022-07-15T05:49:10;4.93;;;3.58;;
30000;SDS011;16845;48.670;9.000;2022-07-15T05:51:38;9.13;;;3.20;;
30000;SDS011;16845;48.670;9.000;2022-07-15T05:54:07;11.98;;;3.60;;
30000;SDS011;16845;48.670;9.000;2022-07-15T05:56:39;9.25;;;3.60;;
30000;SDS011;16845;48.670;9.000;2022-07-15T05:59:08;5.80;;;3.03;;
30000;SDS011;16845;48.670;9.000;2022-07-15T06:01:36;11.40;;;2.97;;
30000;SDS011;16845;48.670;9.000;2022-07-15T06:04:04;7.00;;;2.92;;
30000;SDS011;16845;48.670;9.000;2022-07-15T06:06:32;9.98;;;2.95;;
30000;SDS011;16845;48.670;9.000;2022-07-15T06:09:00;7.70;;;3.08;;
30000;SDS011;16845;48.670;9.000;2022-07-15T06:11:30;7.28;;;2.92;;
30000;SDS011;16845;48.670;9.000;2022-07-15T06:13:57;8.02;;;3.25;;
30000;SDS011;16845;48.670;9.000;2022-07-15T06:16:25;6.13;;;2.55;;
30000;SDS011;16845;48.670;9.000;2022-07-15T06:18:53;10.77;;;3.00;;
30000;SDS011;16845;48.670;9.000;2022-07-15T06:21:21;5.05;;;2.90;;
30000;SDS011;16845;48.670;9.000;2022-07-15T06:23:49;6.30;;;2.83;;
30000;SDS011;16845;48.670;9.000;2022-07-15T06:26:17;13.07;;;2.58;;
30000;SDS011;16845;48.670;9.000;2022-07-15T06:28:47;14.88;;;3.22;;
30000;SDS011;16845;48.670;9.000;2022-07-15T06:31:15;2.38;;;1.75;;
30000;SDS011;16845;48.670;9.000;2022-07-15T06:33:44;4.18;;;2.10;;
30000;SDS011;16845;48.670;9.000;2022-07-15T06:36:11;9.52;;;2.13;;
30000;SDS011;16845;48.670;9.000;2022-07-15T06:38:40;33.00;;;4.15;;
30000;SDS011;16845;48.670;9.000;2022-07-15T06:41:07;9.50;;;3.05;;
30000;SDS011;16845;48.670;9.000;2022-07-15T06:43:36;9.77;;;1.77;;
30000;SDS011;16845;48.670;9.000;2022-07-15T06:46:05;7.60;;;1.52;;
30000;SDS011;16845;48.670;9.000;2022-07-15T06:48:33;3.95;;;1.70;;
30000;SDS011;16845;48.670;9.000;2022-07-15T06:51:01;6.45;;;1.95;;
30000;SDS011;16845;48.670;9.000;2022-07-15T06:53:29;8.27;;;2.70;;
30000;SDS011;16845;48.670;9.000;2022-07-15T06:55:58;9.82;;;2.50;;
30000;SDS011;16845;48.670;9.000;2022-07-15T06:58:26;4.40;;;1.92;;
30000;SDS011;16845;48.670;9.000;2022-07-15T07:00:54;4.80;;;1.95;;
30000;SDS011;16845;48.670;9.000;2022-07-15T07:03:23;5.03;;;2.00;;
30000;SDS011;16845;48.670;9.000;2022-07-15T07:06:11;8.73;;;2.15;;
30000;SDS011;16845;48.670;9.000;2022-07-15T07:08:39;4.38;;;2.08;;
30000;SDS011;16845;48.670;9.000;2022-07-15T07:11:07;5.53;;;1.92;;
30000;SDS011;16845;48.670;9.000;2022-07-15T07:13:35;11.63;;;1.98;;
30000;SDS011;16845;48.670;9.000;2022-07-15T07:16:03;4.82;;;2.03;;
30000;SDS011;16845;48.670;9.000;2022-07-15T07:18:33;5.07;;;1.70;;
30000;SDS011;16845;48.670;9.000;2022-07-15T07:21:02;4.00;;;1.60;;
30000;SDS011;16845;48.670;9.000;2022-07-15T07:23:31;3.05;;;1.63;;
30000;SDS011;16845;48.670;9.000;2022-07-15T07:26:00;3.15;;;1.83;;
30000;SDS011;16845;48.670;9.000;2022-07-15T07:28:29;6.20;;;1.80;;
30000;SDS011;16845;48.670;9.000;2022-07-15T07:30:57;6.07;;;1.90;;
30000;SDS011;16845;48.670;9.000;2022-07-15T07:33:25;5.10;;;1.60;;
30000;SDS011;16845;48.670;9.000;2022-07-15T07:35:55;3.35;;;2.03;;
30000;SDS011;16845;48.670;9.000;2022-07-15T07:38:23;7.82;;;2.10;;
30000;SDS011;16845;48.670;9.000;2022-07-15T07:40:51;7.10;;;2.03;;
30000;SDS011;16845;48.670;9.000;2022-07-15T07:43:19;3.90;;;2.00;;
30000;SDS011;16845;48.670;9.000;2022-07-15T07:45:47;3.42;;;1.30;;
30000;SDS011;16845;48.670;9.000;2022-07-15T07:48:15;5.97;;;1.92;;
30000;SDS011;16845;48.670;9.000;2022-07-15T07:50:44;7.47;;;2.15;;
30000;SDS011;16845;48.670;9.000;2022-07-15T07:53:14;9.40;;;1.77;;
30000;SDS011;16845;48.670;9.000;2022-07-15T07:55:42;9.45;;;1.52;;
30000;SDS011;16845;48.670;9.000;2022-07-15T07:58:10;4.07;;;1.50;;
30000;SDS011;16845;48.670;9.000;2022-07-15T08:00:38;7.93;;;1.63;;
30000;SDS011;16845;48.670;9.000;2022-07-15T08:03:06;6.18;;;1.80;;
30000;SDS011;16845;48.670;9.000;2022-07-15T08:05:34;7.63;;;2.00;;
30000;SDS011;16845;48.670;9.000;2022-07-15T08:08:06;6.15;;;1.70;;
30000;SDS011;16845;48.670;9.000;2022-07-15T08:10:36;3.72;;;1.73;;
30000;SDS011;16845;48.670;9.000;2022-07-15T08:13:12;5.05;;;1.90;;
30000;SDS011;16845;48.670;9.000;2022-07-15T08:15:40;6.90;;;1.70;;
30000;SDS011;16845;48.670;9.000;2022-07-15T08:18:08;7.53;;;2.20;;
30000;SDS011;16845;48.670;9.000;2022-07-15T08:20:36;3.30;;;1.48;;
30000;SDS011;16845;48.670;9.000;2022-07-15T08:23:05;6.13;;;1.77;;
30000;SDS011;16845;48.670;9.000;2022-07-15T08:25:34;3.38;;;1.60;;
30000;SDS011;16845;48.670;9.000;2022-07-15T08:28:05;8.13;;;1.48;;
30000;SDS011;16845;48.670;9.000;2022-07-15T08:30:34;7.70;;;1.90;;
30000;SDS011;16845;48.670;9.000;2022-07-15T08:33:03;2.00;;;1.42;;
30000;SDS011;16845;48.670;9.000;2022-07-15T08:35:31;3.63;;;1.60;;
30000;SDS011;16845;48.670;9.000;2022-07-15T08:38:02;5.90;;;1.58;;
30000;SDS011;16845;48.670;9.000;2022-07-15T08:40:33;3.33;;;1.60;;
30000;SDS011;16845;48.670;9.000;2022-07-15T08:43:04;21.77;;;3.22;;
30000;SDS011;16845;48.670;9.000;2022-07-15T08:45:34;6.43;;;1.58;;
30000;SDS011;16845;48.670;9.000;2022-07-15T08:48:04;4.80;;;1.58;;
30000;SDS011;16845;48.670;9.000;2022-07-15T08:50:33;6.50;;;1.83;;
30000;SDS011;16845;48.670;9.000;2022-07-15T08:53:02;5.13;;;1.60;;
30000;SDS011;16845;48.670;9.000;2022-07-15T08:55:31;3.88;;;1.65;;
30000;SDS011;16845;48.670;9.000;2022-07-15T08:58:00;4.43;;;1.73;;
30000;SDS011;16845;48.670;9.000;2022-07-15T09:00:29;13.70;;;1.98;;
30000;SDS011;16845;48.670;9.000;2022-07-15T09:02:57;4.90;;;2.45;;
30000;SDS011;16845;48.670;9.000;2022-07-15T09:05:27;7.78;;;1.88;;
30000;SDS011;16845;48.670;9.000;2022-07-15T09:07:58;4.43;;;1.80;;
30000;SDS011;16845;48.670;9.000;2022-07-15T09:10:44;5.32;;;2.03;;
30000;SDS011;16845;48.670;9.000;2022-07-15T09:13:23;4.40;;;2.05;;
30000;SDS011;16845;48.670;9.000;2022-07-15T09:15:59;5.75;;;1.90;;
30000;SDS011;16845;48.670;9.000;2022-07-15T09:18:29;5.63;;;2.22;;
30000;SDS011;16845;48.670;9.000;2022-07-15T09:20:59;2.85;;;1.92;;
30000;SDS011;16845;48.670;9.000;2022-07-15T09:23:29;4.57;;;1.83;;
30000;SDS011;16845;48.670;9.000;2022-07-15T09:25:58;3.92;;;1.80;;
30000;SDS011;16845;48.670;9.000;2022-07-15T09:28:46;8.45;;;2.17;;
30000;SDS011;16845;48.670;9.000;2022-07-15T09:31:27;17.77;;;2.08;;
30000;SDS011;16845;48.670;9.000;2022-07-15T09:34:13;5.70;;;2.03;;
30000;SDS011;16845;48.670;9.000;2022-07-15T09:36:42;5.80;;;1.95;;
30000;SDS011;16845;48.670;9.000;2022-07-15T09:39:12;2.63;;;1.80;;
30000;SDS011;16845;48.670;9.000;2022-07-15T09:41:41;5.60;;;1.65;;
30000;SDS011;16845;48.670;9.000;2022-07-15T09:44:11;5.40;;;2.10;;
30000;SDS011;16845;48.670;9.000;2022-07-15T09:46:46;4.93;;;2.65;;
30000;SDS011;16845;48.670;9.000;2022-07-15T09:49:17;3.55;;;1.95;;
30000;SDS011;16845;48.670;9.000;2022-07-15T09:52:00;5.05;;;2.20;;
30000;SDS011;16845;48.670;9.000;2022-07-15T09:54:30;3.92;;;2.20;;
30000;SDS011;16845;48.670;9.000;2022-07-15T09:57:00;5.95;;;2.35;;
30000;SDS011;16845;48.670;9.000;2022-07-15T09:59:30;8.13;;;2.53;;
30000;SDS011;16845;48.670;9.000;2022-07-15T10:02:06;6.88;;;1.98;;
30000;SDS011;16845;48.670;9.000;2022-07-15T10:04:35;9.27;;;2.60;;
30000;SDS011;16845;48.670;9.000;2022-07-15T10:07:03;5.00;;;2.00;;
30000;SDS011;16845;48.670;9.000;2022-07-15T10:09:52;4.20;;;1.80;;
30000;SDS011;16845;48.670;9.000;2022-07-15T10:12:29;6.60;;;2.17;;
30000;SDS011;16845;48.670;9.000;2022-07-15T10:15:09;2.58;;;1.75;;
30000;SDS011;16845;48.670;9.000;2022-07-15T10:20:47;9.93;;;2.67;;
30000;SDS011;16845;48.670;9.000;2022-07-15T10:23:42;4.70;;;2.10;;
30000;SDS011;16845;48.670;9.000;2022-07-15T10:26:25;3.67;;;1.80;;
30000;SDS011;16845;48.670;9.000;2022-07-15T10:29:05;6.28;;;2.17;;
30000;SDS011;16845;48.670;9.000;2022-07-15T10:31:34;5.78;;;1.80;;
30000;SDS011;16845;48.670;9.000;2022-07-15T10:34:17;3.95;;;2.20;;
30000;SDS011;16845;48.670;9.000;2022-07-15T10:36:53;5.70;;;2.17;;
30000;SDS011;16845;48.670;9.000;2022-07-15T10:39:27;7.80;;;1.90;;
30000;SDS011;16845;48.670;9.000;2022-07-15T10:42:13;4.22;;;1.70;;
30000;SDS011;16845;48.670;9.000;2022-07-15T10:44:49;4.30;;;1.70;;
30000;SDS011;16845;48.670;9.000;2022-07-15T10:47:29;2.72;;;1.65;;
30000;SDS011;16845;48.670;9.000;2022-07-15T10:49:59;4.82;;;1.88;;
30000;SDS011;16845;48.670;9.000;2022-07-15T10:52:27;4.25;;;2.60;;
30000;SDS011;16845;48.670;9.000;2022-07-15T10:55:00;5.50;;;1.98;;
30000;SDS011;16845;48.670;9.000;2022-07-15T11:00:28;8.10;;;1.80;;
30000;SDS011;16845;48.670;9.000;2022-07-15T11:03:02;6.65;;;2.13;;
30000;SDS011;16845;48.670;9.000;2022-07-15T11:05:33;4.32;;;2.03;;
30000;SDS011;16845;48.670;9.000;2022-07-15T11:14:12;5.22;;;2.00;;
30000;SDS011;16845;48.670;9.000;2022-07-15T11:17:09;8.45;;;2.47;;
30000;SDS011;16845;48.670;9.000;2022-07-15T11:19:38;5.05;;;2.13;;
30000;SDS011;16845;48.670;9.000;2022-07-15T11:22:07;7.00;;;2.20;;
30000;SDS011;16845;48.670;9.000;2022-07-15T11:24:36;3.92;;;2.42;;
30000;SDS011;16845;48.670;9.000;2022-07-15T11:27:04;6.78;;;2.65;;
30000;SDS011;16845;48.670;9.000;2022-07-15T11:29:43;8.40;;;2.00;;
30000;SDS011;16845;48.670;9.000;2022-07-15T11:32:14;4.13;;;1.90;;
30000;SDS011;16845;48.670;9.000;2022-07-15T11:34:43;3.20;;;1.92;;
30000;SDS011;16845;48.670;9.000;2022-07-15T11:37:14;4.97;;;1.70;;
30000;SDS011;16845;48.670;9.000;2022-07-15T11:39:46;2.22;;;1.60;;
30000;SDS011;16845;48.670;9.000;2022-07-15T11:42:19;8.95;;;2.10;;
30000;SDS011;16845;48.670;9.000;2022-07-15T11:45:08;10.00;;;1.80;;
30000;SDS011;16845;48.670;9.000;2022-07-15T11:47:49;6.55;;;1.88;;
30000;SDS011;16845;48.670;9.000;2022-07-15T11:50:19;4.28;;;1.95;;
30000;SDS011;16845;48.670;9.000;2022-07-15T11:52:47;6.13;;;2.17;;
30000;SDS011;16845;48.670;9.000;2022-07-15T11:55:17;8.70;;;2.45;;
30000;SDS011;16845;48.670;9.000;2022-07-15T11:57:45;4.97;;;1.85;;
30000;SDS011;16845;48.670;9.000;2022-07-15T12:00:15;2.75;;;2.20;;
30000;SDS011;16845;48.670;9.000;2022-07-15T12:02:43;6.38;;;1.88;;
30000;SDS011;16845;48.670;9.000;2022-07-15T12:05:13;6.88;;;1.92;;
30000;SDS011;16845;48.670;9.000;2022-07-15T12:07:41;4.28;;;2.00;;
30000;SDS011;16845;48.670;9.000;2022-07-15T12:10:11;4.93;;;1.95;;
30000;SDS011;16845;48.670;9.000;2022-07-15T12:12:41;6.57;;;2.38;;
30000;SDS011;16845;48.670;9.000;2022-07-15T12:15:09;3.72;;;1.80;;
30000;SDS011;16845;48.670;9.000;2022-07-15T12:17:40;4.72;;;2.08;;
30000;SDS011;16845;48.670;9.000;2022-07-15T12:20:09;5.40;;;2.40;;
30000;SDS011;16845;48.670;9.000;2022-07-15T12:22:37;5.57;;;2.35;;
30000;SDS011;16845;48.670;9.000;2022-07-15T12:25:25;5.05;;;1.83;;
30000;SDS011;16845;48.670;9.000;2022-07-15T12:27:53;6.25;;;2.03;;
30000;SDS011;16845;48.670;9.000;2022-07-15T12:30:28;7.22;;;1.90;;
30000;SDS011;16845;48.670;9.000;2022-07-15T12:35:44;4.97;;;1.90;;
30000;SDS011;16845;48.670;9.000;2022-07-15T12:41:04;4.68;;;1.92;;
30000;SDS011;16845;48.670;9.000;2022-07-15T12:43:48;2.92;;;1.90;;
30000;SDS011;16845;48.670;9.000;2022-07-15T12:46:18;7.38;;;2.30;;
30000;SDS011;16845;48.670;9.000;2022-07-15T12:48:48;3.95;;;1.75;;
30000;SDS011;16845;48.670;9.000;2022-07-15T12:51:17;3.42;;;1.75;;
30000;SDS011;16845;48.670;9.000;2022-07-15T12:53:51;5.63;;;1.85;;
30000;SDS011;16845;48.670;9.000;2022-07-15T12:56:19;8.85;;;1.83;;
30000;SDS011;16845;48.670;9.000;2022-07-15T12:58:47;4.38;;;1.60;;
30000;SDS011;16845;48.670;9.000;2022-07-15T13:01:17;3.78;;;1.75;;
30000;SDS011;16845;48.670;9.000;2022-07-15T13:03:45;3.83;;;2.25;;
30000;SDS011;16845;48.670;9.000;2022-07-15T13:06:14;7.35;;;1.75;;
30000;SDS011;16845;48.670;9.000;2022-07-15T13:08:44;4.05;;;1.60;;
30000;SDS011;16845;48.670;9.000;2022-07-15T13:11:12;3.92;;;1.48;;
30000;SDS011;16845;48.670;9.000;2022-07-15T13:13:40;4.50;;;1.60;;
30000;SDS011;16845;48.670;9.000;2022-07-15T13:16:08;3.97;;;2.00;;
30000;SDS011;16845;48.670;9.000;2022-07-15T13:18:36;2.92;;;1.80;;
30000;SDS011;16845;48.670;9.000;2022-07-15T13:21:05;4.60;;;1.67;;
30000;SDS011;16845;48.670;9.000;2022-07-15T13:23:34;5.22;;;1.75;;
30000;SDS011;16845;48.670;9.000;2022-07-15T13:26:02;5.63;;;1.38;;
30000;SDS011;16845;48.670;9.000;2022-07-15T13:28:30;3.20;;;1.60;;
30000;SDS011;16845;48.670;9.000;2022-07-15T13:30:58;8.55;;;2.13;;
30000;SDS011;16845;48.670;9.000;2022-07-15T13:33:26;6.00;;;1.80;;
30000;SDS011;16845;48.670;9.000;2022-07-15T13:35:54;5.05;;;1.77;;
30000;SDS011;16845;48.670;9.000;2022-07-15T13:38:23;6.35;;;3.08;;
30000;SDS011;16845;48.670;9.000;2022-07-15T13:40:53;8.50;;;1.92;;
30000;SDS011;16845;48.670;9.000;2022-07-15T13:43:21;4.43;;;2.05;;
30000;SDS011;16845;48.670;9.000;2022-07-15T13:45:49;6.45;;;2.17;;
30000;SDS011;16845;48.670;9.000;2022-07-15T13:48:17;4.40;;;1.90;;
30000;SDS011;16845;48.670;9.000;2022-07-15T13:50:44;3.55;;;2.10;;
30000;SDS011;16845;48.670;9.000;2022-07-15T13:53:30;4.60;;;2.13;;
30000;SDS011;16845;48.670;9.000;2022-07-15T13:55:59;4.18;;;2.05;;
30000;SDS011;16845;48.670;9.000;2022-07-15T13:58:27;4.63;;;2.35;;
30000;SDS011;16845;48.670;9.000;2022-07-15T14:00:55;2.85;;;1.80;;
30000;SDS011;16845;48.670;9.000;2022-07-15T14:03:23;2.75;;;2.08;;
30000;SDS011;16845;48.670;9.000;2022-07-15T14:05:51;4.18;;;2.50;;
30000;SDS011;16845;48.670;9.000;2022-07-15T14:08:20;8.77;;;2.45;;
30000;SDS011;16845;48.670;9.000;2022-07-15T14:10:48;7.68;;;2.20;;
30000;SDS011;16845;48.670;9.000;2022-07-15T14:13:17;7.82;;;2.05;;
30000;SDS011;16845;48.670;9.000;2022-07-15T14:15:45;7.38;;;2.40;;
30000;SDS011;16845;48.670;9.000;2022-07-15T14:18:14;4.90;;;2.00;;
30000;SDS011;16845;48.670;9.000;2022-07-15T14:20:42;4.97;;;2.55;;
30000;SDS011;16845;48.670;9.000;2022-07-15T14:23:12;6.97;;;2.33;;
30000;SDS011;16845;48.670;9.000;2022-07-15T14:25:40;6.13;;;1.98;;
30000;SDS011;16845;48.670;9.000;2022-07-15T14:28:07;4.65;;;1.67;;
30000;SDS011;16845;48.670;9.000;2022-07-15T14:30:37;8.95;;;2.30;;
30000;SDS011;16845;48.670;9.000;2022-07-15T14:33:05;5.82;;;1.95;;
30000;SDS011;16845;48.670;9.000;2022-07-15T14:35:34;12.13;;;2.22;;
30000;SDS011;16845;48.670;9.000;2022-07-15T14:38:02;6.95;;;2.35;;
30000;SDS011;16845;48.670;9.000;2022-07-15T14:40:30;5.82;;;2.28;;
30000;SDS011;16845;48.670;9.000;2022-07-15T14:42:58;2.88;;;1.90;;
30000;SDS011;16845;48.670;9.000;2022-07-15T14:45:26;9.13;;;2.05;;
30000;SDS011;16845;48.670;9.000;2022-07-15T14:47:55;9.70;;;2.05;;
30000;SDS011;16845;48.670;9.000;2022-07-15T14:50:24;7.82;;;2.17;;
30000;SDS011;16845;48.670;9.000;2022-07-15T14:52:51;2.90;;;1.65;;
30000;SDS011;16845;48.670;9.000;2022-07-15T14:55:19;4.18;;;1.90;;
30000;SDS011;16845;48.670;9.000;2022-07-15T14:57:47;2.90;;;1.88;;
30000;SDS011;16845;48.670;9.000;2022-07-15T15:00:15;7.55;;;2.30;;
30000;SDS011;16845;48.670;9.000;2022-07-15T15:02:43;4.70;;;2.17;;
30000;SDS011;16845;48.670;9.000;2022-07-15T15:05:13;2.40;;;1.67;;
30000;SDS011;16845;48.670;9.000;2022-07-15T15:07:41;5.90;;;1.90;;
30000;SDS011;16845;48.670;9.000;2022-07-15T15:10:09;5.22;;;1.83;;
30000;SDS011;16845;48.670;9.000;2022-07-15T15:12:37;4.78;;;1.85;;
30000;SDS011;16845;48.670;9.000;2022-07-15T15:15:05;2.58;;;1.60;;
30000;SDS011;16845;48.670;9.000;2022-07-15T15:17:34;7.10;;;1.67;;
30000;SDS011;16845;48.670;9.000;2022-07-15T15:20:07;6.78;;;2.10;;
30000;SDS011;16845;48.670;9.000;2022-07-15T15:22:37;4.60;;;2.28;;